sensor_id;sensor_type;location;lat;lon;timestamp;pressure;altitude;pressure_sealevel;temperature;humidity
39891;BME280;25564;53.312;9.790;2024-01-30T00:01:49;102327.78;;;3.87;73.17
39891;BME280;25564;53.312;9.790;2024-01-30T00:04:20;102327.94;;;3.81;73.35
39891;BME280;25564;53.312;9.790;2024-01-30T00:06:52;102330.63;;;3.77;73.43
39891;BME280;25564;53.312;9.790;2024-01-30T00:09:24;102328.16;;;3.74;73.64
39891;BME280;25564;53.312;9.790;2024-01-30T00:11:56;102330.00;;;3.69;73.02
39891;BME280;25564;53.312;9.790;2024-01-30T00:14:28;102324.13;;;3.64;73.55
39891;BME280;25564;53.312;9.790;2024-01-30T00:16:59;102321.72;;;3.58;73.80
39891;BME280;25564;53.312;9.790;2024-01-30T00:19:30;102320.97;;;3.54;73.39
39891;BME280;25564;53.312;9.790;2024-01-30T00:22:02;102312.53;;;3.49;73.81
39891;BME280;25564;53.312;9.790;2024-01-30T00:24:33;102321.09;;;3.50;73.97
39891;BME280;25564;53.312;9.790;2024-01-30T00:27:05;102314.34;;;3.46;73.38
39891;BME280;25564;53.312;9.790;2024-01-30T00:29:37;102310.19;;;3.42;74.18
39891;BME280;25564;53.312;9.790;2024-01-30T00:32:09;102317.03;;;3.43;74.07
39891;BME280;25564;53.312;9.790;2024-01-30T00:34:41;102312.75;;;3.42;73.88
39891;BME280;25564;53.312;9.790;2024-01-30T00:37:13;102307.75;;;3.37;73.63
39891;BME280;25564;53.312;9.790;2024-01-30T00:39:44;102308.59;;;3.38;73.21
39891;BME280;25564;53.312;9.790;2024-01-30T00:42:16;102315.44;;;3.37;73.27
39891;BME280;25564;53.312;9.790;2024-01-30T00:44:47;102317.16;;;3.37;73.79
39891;BME280;25564;53.312;9.790;2024-01-30T00:47:19;102310.25;;;3.39;73.90
39891;BME280;25564;53.312;9.790;2024-01-30T00:49:50;102306.09;;;3.35;73.65
39891;BME280;25564;53.312;9.790;2024-01-30T00:52:21;102306.88;;;3.37;73.97
39891;BME280;25564;53.312;9.790;2024-01-30T00:54:53;102302.66;;;3.36;73.65
39891;BME280;25564;53.312;9.790;2024-01-30T00:57:25;102308.66;;;3.33;74.00
39891;BME280;25564;53.312;9.790;2024-01-30T00:59:58;102301.06;;;3.30;74.62
39891;BME280;25564;53.312;9.790;2024-01-30T01:02:29;102305.34;;;3.30;73.76
39891;BME280;25564;53.312;9.790;2024-01-30T01:05:01;102301.09;;;3.29;74.04
39891;BME280;25564;53.312;9.790;2024-01-30T01:07:32;102304.53;;;3.28;74.35
39891;BME280;25564;53.312;9.790;2024-01-30T01:10:04;102310.53;;;3.27;73.85
39891;BME280;25564;53.312;9.790;2024-01-30T01:12:36;102314.00;;;3.24;74.26
39891;BME280;25564;53.312;9.790;2024-01-30T01:15:08;102312.41;;;3.22;73.89
39891;BME280;25564;53.312;9.790;2024-01-30T01:17:42;102309.03;;;3.18;73.93
39891;BME280;25564;53.312;9.790;2024-01-30T01:20:14;102298.88;;;3.15;73.95
39891;BME280;25564;53.312;9.790;2024-01-30T01:22:45;102304.81;;;3.15;74.12
39891;BME280;25564;53.312;9.790;2024-01-30T01:25:16;102298.06;;;3.13;73.98
39891;BME280;25564;53.312;9.790;2024-01-30T01:27:48;102294.72;;;3.09;74.22
39891;BME280;25564;53.312;9.790;2024-01-30T01:30:23;102293.09;;;3.07;74.55
39891;BME280;25564;53.312;9.790;2024-01-30T01:32:54;102299.03;;;3.07;74.37
39891;BME280;25564;53.312;9.790;2024-01-30T01:35:28;102307.63;;;3.06;74.51
39891;BME280;25564;53.312;9.790;2024-01-30T01:37:59;102297.44;;;3.03;74.71
39891;BME280;25564;53.312;9.790;2024-01-30T01:40:31;102302.56;;;3.03;75.04
39891;BME280;25564;53.312;9.790;2024-01-30T01:43:03;102298.34;;;3.01;74.62
39891;BME280;25564;53.312;9.790;2024-01-30T01:45:37;102288.19;;;2.98;74.68
39891;BME280;25564;53.312;9.790;2024-01-30T01:48:08;102292.41;;;3.00;74.81
39891;BME280;25564;53.312;9.790;2024-01-30T01:50:42;102288.09;;;3.02;74.85
39891;BME280;25564;53.312;9.790;2024-01-30T01:53:15;102287.19;;;3.03;75.11
39891;BME280;25564;53.312;9.790;2024-01-30T01:55:47;102280.28;;;3.05;75.04
39891;BME280;25564;53.312;9.790;2024-01-30T01:58:19;102283.59;;;3.10;74.98
39891;BME280;25564;53.312;9.790;2024-01-30T02:00:51;102281.75;;;3.15;74.92
39891;BME280;25564;53.312;9.790;2024-01-30T02:03:23;102274.88;;;3.18;74.50
39891;BME280;25564;53.312;9.790;2024-01-30T02:06:01;102272.19;;;3.22;74.53
39891;BME280;25564;53.312;9.790;2024-01-30T02:08:34;102271.28;;;3.25;74.79
39891;BME280;25564;53.312;9.790;2024-01-30T02:11:06;102261.00;;;3.25;75.27
39891;BME280;25564;53.312;9.790;2024-01-30T02:13:38;102264.31;;;3.30;75.17
39891;BME280;25564;53.312;9.790;2024-01-30T02:16:09;102256.53;;;3.34;74.68
39891;BME280;25564;53.312;9.790;2024-01-30T02:18:42;102257.28;;;3.38;74.70
39891;BME280;25564;53.312;9.790;2024-01-30T02:21:18;102251.25;;;3.39;74.95
39891;BME280;25564;53.312;9.790;2024-01-30T02:23:50;102242.63;;;3.43;74.33
39891;BME280;25564;53.312;9.790;2024-01-30T02:26:22;102245.09;;;3.46;74.80
39891;BME280;25564;53.312;9.790;2024-01-30T02:28:53;102245.84;;;3.49;74.71
39891;BME280;25564;53.312;9.790;2024-01-30T02:31:25;102235.53;;;3.52;74.71
39891;BME280;25564;53.312;9.790;2024-01-30T02:33:57;102240.59;;;3.54;75.40
39891;BME280;25564;53.312;9.790;2024-01-30T02:36:29;102237.13;;;3.56;74.53
39891;BME280;25564;53.312;9.790;2024-01-30T02:39:00;102231.91;;;3.59;75.15
39891;BME280;25564;53.312;9.790;2024-01-30T02:41:31;102227.53;;;3.63;75.08
39891;BME280;25564;53.312;9.790;2024-01-30T02:44:04;102232.59;;;3.64;75.10
39891;BME280;25564;53.312;9.790;2024-01-30T02:46:35;102225.72;;;3.66;75.08
39891;BME280;25564;53.312;9.790;2024-01-30T02:49:07;102219.72;;;3.66;74.61
39891;BME280;25564;53.312;9.790;2024-01-30T02:51:38;102217.16;;;3.66;74.83
39891;BME280;25564;53.312;9.790;2024-01-30T02:54:10;102222.28;;;3.66;74.98
39891;BME280;25564;53.312;9.790;2024-01-30T02:56:41;102220.63;;;3.65;74.70
39891;BME280;25564;53.312;9.790;2024-01-30T02:59:13;102217.28;;;3.63;74.96
39891;BME280;25564;53.312;9.790;2024-01-30T03:01:45;102218.13;;;3.63;74.94
39891;BME280;25564;53.312;9.790;2024-01-30T03:04:17;102213.06;;;3.60;75.42
39891;BME280;25564;53.312;9.790;2024-01-30T03:06:49;102216.53;;;3.59;75.37
39891;BME280;25564;53.312;9.790;2024-01-30T03:09:21;102212.31;;;3.57;75.29
39891;BME280;25564;53.312;9.790;2024-01-30T03:11:52;102214.06;;;3.55;75.84
39891;BME280;25564;53.312;9.790;2024-01-30T03:14:24;102215.06;;;3.49;74.92
39891;BME280;25564;53.312;9.790;2024-01-30T03:16:56;102215.13;;;3.48;75.12
39891;BME280;25564;53.312;9.790;2024-01-30T03:19:27;102218.66;;;3.44;75.92
39891;BME280;25564;53.312;9.790;2024-01-30T03:21:59;102210.09;;;3.43;75.23
39891;BME280;25564;53.312;9.790;2024-01-30T03:24:31;102201.72;;;3.38;75.76
39891;BME280;25564;53.312;9.790;2024-01-30T03:27:03;102203.53;;;3.33;75.35
39891;BME280;25564;53.312;9.790;2024-01-30T03:29:34;102207.06;;;3.29;76.19
39891;BME280;25564;53.312;9.790;2024-01-30T03:32:05;102196.03;;;3.26;75.73
39891;BME280;25564;53.312;9.790;2024-01-30T03:34:38;102197.00;;;3.22;75.73
39891;BME280;25564;53.312;9.790;2024-01-30T03:37:10;102197.88;;;3.21;75.97
39891;BME280;25564;53.312;9.790;2024-01-30T03:39:41;102203.00;;;3.21;76.11
39891;BME280;25564;53.312;9.790;2024-01-30T03:42:12;102196.22;;;3.20;75.92
39891;BME280;25564;53.312;9.790;2024-01-30T03:44:44;102196.16;;;3.21;75.96
39891;BME280;25564;53.312;9.790;2024-01-30T03:47:15;102188.41;;;3.23;76.11
39891;BME280;25564;53.312;9.790;2024-01-30T03:49:47;102182.50;;;3.21;75.73
39891;BME280;25564;53.312;9.790;2024-01-30T03:52:18;102185.84;;;3.23;76.20
39891;BME280;25564;53.312;9.790;2024-01-30T03:54:50;102176.44;;;3.23;76.16
39891;BME280;25564;53.312;9.790;2024-01-30T03:57:21;102179.84;;;3.24;75.77
39891;BME280;25564;53.312;9.790;2024-01-30T03:59:53;102187.41;;;3.28;75.96
39891;BME280;25564;53.312;9.790;2024-01-30T04:02:24;102189.06;;;3.31;75.85
39891;BME280;25564;53.312;9.790;2024-01-30T04:04:56;102185.63;;;3.32;75.98
39891;BME280;25564;53.312;9.790;2024-01-30T04:07:28;102183.06;;;3.32;75.66
39891;BME280;25564;53.312;9.790;2024-01-30T04:10:00;102178.03;;;3.27;76.33
39891;BME280;25564;53.312;9.790;2024-01-30T04:12:32;102176.34;;;3.26;75.66
39891;BME280;25564;53.312;9.790;2024-01-30T04:15:04;102174.72;;;3.24;76.09
39891;BME280;25564;53.312;9.790;2024-01-30T04:17:35;102168.00;;;3.20;75.68
39891;BME280;25564;53.312;9.790;2024-01-30T04:20:07;102186.81;;;3.19;76.25
39891;BME280;25564;53.312;9.790;2024-01-30T04:22:39;102181.81;;;3.14;76.86
39891;BME280;25564;53.312;9.790;2024-01-30T04:25:11;102182.72;;;3.11;76.87
39891;BME280;25564;53.312;9.790;2024-01-30T04:27:43;102188.81;;;3.09;76.10
39891;BME280;25564;53.312;9.790;2024-01-30T04:30:14;102186.25;;;3.07;76.02
39891;BME280;25564;53.312;9.790;2024-01-30T04:32:46;102184.59;;;3.06;76.38
39891;BME280;25564;53.312;9.790;2024-01-30T04:35:17;102182.06;;;3.05;77.07
39891;BME280;25564;53.312;9.790;2024-01-30T04:37:49;102188.94;;;3.03;77.15
39891;BME280;25564;53.312;9.790;2024-01-30T04:40:21;102179.63;;;3.00;76.80
39891;BME280;25564;53.312;9.790;2024-01-30T04:42:52;102181.28;;;3.01;76.98
39891;BME280;25564;53.312;9.790;2024-01-30T04:45:24;102176.25;;;2.98;76.68
39891;BME280;25564;53.312;9.790;2024-01-30T04:47:55;102183.91;;;3.00;77.21
39891;BME280;25564;53.312;9.790;2024-01-30T04:50:26;102186.50;;;2.98;76.77
39891;BME280;25564;53.312;9.790;2024-01-30T04:52:58;102187.25;;;3.02;76.84
39891;BME280;25564;53.312;9.790;2024-01-30T04:55:30;102186.50;;;2.98;76.92
39891;BME280;25564;53.312;9.790;2024-01-30T04:58:01;102179.69;;;2.97;77.22
39891;BME280;25564;53.312;9.790;2024-01-30T05:00:33;102179.69;;;2.97;76.73
39891;BME280;25564;53.312;9.790;2024-01-30T05:03:05;102174.63;;;2.96;77.16
39891;BME280;25564;53.312;9.790;2024-01-30T05:05:36;102182.25;;;2.97;77.18
39891;BME280;25564;53.312;9.790;2024-01-30T05:08:08;102174.56;;;2.97;77.58
39891;BME280;25564;53.312;9.790;2024-01-30T05:10:39;102171.94;;;2.99;76.80
39891;BME280;25564;53.312;9.790;2024-01-30T05:13:11;102164.31;;;2.97;76.64
39891;BME280;25564;53.312;9.790;2024-01-30T05:15:45;102171.09;;;3.00;77.87
39891;BME280;25564;53.312;9.790;2024-01-30T05:18:17;102177.94;;;2.99;77.25
39891;BME280;25564;53.312;9.790;2024-01-30T05:20:51;102174.50;;;2.99;77.06
39891;BME280;25564;53.312;9.790;2024-01-30T05:23:23;102178.81;;;2.98;77.00
39891;BME280;25564;53.312;9.790;2024-01-30T05:25:54;102183.94;;;2.98;77.11
39891;BME280;25564;53.312;9.790;2024-01-30T05:28:26;102179.69;;;2.97;77.57
39891;BME280;25564;53.312;9.790;2024-01-30T05:30:58;102178.84;;;2.97;76.82
39891;BME280;25564;53.312;9.790;2024-01-30T05:33:29;102179.69;;;2.97;77.50
39891;BME280;25564;53.312;9.790;2024-01-30T05:36:01;102179.63;;;2.99;77.98
39891;BME280;25564;53.312;9.790;2024-01-30T05:38:33;102175.31;;;3.01;77.47
39891;BME280;25564;53.312;9.790;2024-01-30T05:41:04;102173.53;;;3.03;77.62
39891;BME280;25564;53.312;9.790;2024-01-30T05:43:36;102176.91;;;3.06;77.89
39891;BME280;25564;53.312;9.790;2024-01-30T05:46:08;102170.75;;;3.12;77.73
39891;BME280;25564;53.312;9.790;2024-01-30T05:48:40;102162.16;;;3.14;77.54
39891;BME280;25564;53.312;9.790;2024-01-30T05:51:11;102163.69;;;3.20;77.54
39891;BME280;25564;53.312;9.790;2024-01-30T05:53:43;102166.88;;;3.28;77.86
39891;BME280;25564;53.312;9.790;2024-01-30T05:56:14;102163.25;;;3.37;77.99
39891;BME280;25564;53.312;9.790;2024-01-30T05:58:46;102156.13;;;3.48;77.23
39891;BME280;25564;53.312;9.790;2024-01-30T06:01:18;102160.09;;;3.58;77.76
39891;BME280;25564;53.312;9.790;2024-01-30T06:03:50;102148.72;;;3.66;77.54
39891;BME280;25564;53.312;9.790;2024-01-30T06:06:21;102155.31;;;3.75;77.64
39891;BME280;25564;53.312;9.790;2024-01-30T06:08:53;102160.25;;;3.82;77.37
39891;BME280;25564;53.312;9.790;2024-01-30T06:11:26;102164.28;;;3.89;76.88
39891;BME280;25564;53.312;9.790;2024-01-30T06:13:58;102153.94;;;3.93;77.41
39891;BME280;25564;53.312;9.790;2024-01-30T06:16:30;102155.47;;;3.98;77.67
39891;BME280;25564;53.312;9.790;2024-01-30T06:19:02;102152.03;;;3.99;77.25
39891;BME280;25564;53.312;9.790;2024-01-30T06:21:33;102153.56;;;4.05;77.21
39891;BME280;25564;53.312;9.790;2024-01-30T06:24:09;102142.25;;;4.10;77.41
39891;BME280;25564;53.312;9.790;2024-01-30T06:26:40;102147.19;;;4.16;77.57
39891;BME280;25564;53.312;9.790;2024-01-30T06:29:12;102136.84;;;4.19;77.54
39891;BME280;25564;53.312;9.790;2024-01-30T06:31:46;102141.06;;;4.22;76.88
39891;BME280;25564;53.312;9.790;2024-01-30T06:34:17;102142.72;;;4.23;77.42
39891;BME280;25564;53.312;9.790;2024-01-30T06:36:49;102140.28;;;4.18;77.62
39891;BME280;25564;53.312;9.790;2024-01-30T06:39:20;102143.84;;;4.14;77.64
39891;BME280;25564;53.312;9.790;2024-01-30T06:41:52;102140.47;;;4.12;77.75
39891;BME280;25564;53.312;9.790;2024-01-30T06:44:23;102142.25;;;4.10;77.44
39891;BME280;25564;53.312;9.790;2024-01-30T06:46:55;102135.53;;;4.06;77.74
39891;BME280;25564;53.312;9.790;2024-01-30T06:49:27;102143.31;;;4.05;77.86
39891;BME280;25564;53.312;9.790;2024-01-30T06:51:58;102141.53;;;4.07;77.92
39891;BME280;25564;53.312;9.790;2024-01-30T06:54:30;102138.09;;;4.08;77.40
39891;BME280;25564;53.312;9.790;2024-01-30T06:57:02;102138.81;;;4.11;77.68
39891;BME280;25564;53.312;9.790;2024-01-30T06:59:33;102142.19;;;4.13;77.98
39891;BME280;25564;53.312;9.790;2024-01-30T07:02:05;102126.78;;;4.13;77.39
39891;BME280;25564;53.312;9.790;2024-01-30T07:04:37;102128.44;;;4.14;77.65
39891;BME280;25564;53.312;9.790;2024-01-30T07:07:10;102124.19;;;4.13;77.87
39891;BME280;25564;53.312;9.790;2024-01-30T07:09:44;102127.66;;;4.12;77.62
39891;BME280;25564;53.312;9.790;2024-01-30T07:12:16;102125.97;;;4.11;77.56
39891;BME280;25564;53.312;9.790;2024-01-30T07:14:47;102122.56;;;4.11;77.86
39891;BME280;25564;53.312;9.790;2024-01-30T07:17:19;102126.91;;;4.09;77.07
39891;BME280;25564;53.312;9.790;2024-01-30T07:19:51;102126.13;;;4.07;77.28
39891;BME280;25564;53.312;9.790;2024-01-30T07:22:22;102123.59;;;4.05;77.57
39891;BME280;25564;53.312;9.790;2024-01-30T07:24:54;102121.84;;;4.06;77.99
39891;BME280;25564;53.312;9.790;2024-01-30T07:27:25;102116.78;;;4.04;77.65
39891;BME280;25564;53.312;9.790;2024-01-30T07:29:56;102129.56;;;4.06;77.33
39891;BME280;25564;53.312;9.790;2024-01-30T07:32:28;102127.84;;;4.06;77.07
39891;BME280;25564;53.312;9.790;2024-01-30T07:34:59;102124.41;;;4.07;76.95
39891;BME280;25564;53.312;9.790;2024-01-30T07:37:39;102113.22;;;4.08;77.85
39891;BME280;25564;53.312;9.790;2024-01-30T07:40:11;102119.22;;;4.09;77.29
39891;BME280;25564;53.312;9.790;2024-01-30T07:42:42;102119.16;;;4.10;77.74
39891;BME280;25564;53.312;9.790;2024-01-30T07:45:14;102117.50;;;4.09;77.53
39891;BME280;25564;53.312;9.790;2024-01-30T07:47:46;102116.59;;;4.10;77.30
39891;BME280;25564;53.312;9.790;2024-01-30T07:50:17;102114.00;;;4.10;77.50
39891;BME280;25564;53.312;9.790;2024-01-30T07:52:50;102114.78;;;4.14;77.35
39891;BME280;25564;53.312;9.790;2024-01-30T07:55:26;102113.88;;;4.15;77.50
39891;BME280;25564;53.312;9.790;2024-01-30T07:58:00;102118.13;;;4.16;77.49
39891;BME280;25564;53.312;9.790;2024-01-30T08:00:31;102121.44;;;4.19;77.82
39891;BME280;25564;53.312;9.790;2024-01-30T08:03:04;102119.47;;;4.27;77.80
39891;BME280;25564;53.312;9.790;2024-01-30T08:05:35;102119.41;;;4.29;77.64
39891;BME280;25564;53.312;9.790;2024-01-30T08:08:07;102110.69;;;4.34;77.66
39891;BME280;25564;53.312;9.790;2024-01-30T08:10:38;102117.28;;;4.41;77.59
39891;BME280;25564;53.312;9.790;2024-01-30T08:13:10;102119.69;;;4.47;77.18
39891;BME280;25564;53.312;9.790;2024-01-30T08:15:41;102109.22;;;4.52;77.44
39891;BME280;25564;53.312;9.790;2024-01-30T08:18:13;102115.78;;;4.60;77.59
39891;BME280;25564;53.312;9.790;2024-01-30T08:20:44;102119.84;;;4.67;77.77
39891;BME280;25564;53.312;9.790;2024-01-30T08:23:16;102117.97;;;4.72;76.91
39891;BME280;25564;53.312;9.790;2024-01-30T08:25:48;102114.28;;;4.80;76.68
39891;BME280;25564;53.312;9.790;2024-01-30T08:28:19;102101.19;;;4.87;77.06
39891;BME280;25564;53.312;9.790;2024-01-30T08:30:52;102091.53;;;4.92;77.15
39891;BME280;25564;53.312;9.790;2024-01-30T08:33:24;102101.59;;;5.00;77.19
39891;BME280;25564;53.312;9.790;2024-01-30T08:35:55;102100.56;;;5.04;76.83
39891;BME280;25564;53.312;9.790;2024-01-30T08:38:27;102107.94;;;5.13;77.13
39891;BME280;25564;53.312;9.790;2024-01-30T08:40:58;102099.22;;;5.17;76.77
39891;BME280;25564;53.312;9.790;2024-01-30T08:43:30;102093.88;;;5.23;76.82
39891;BME280;25564;53.312;9.790;2024-01-30T08:46:02;102084.19;;;5.29;76.69
39891;BME280;25564;53.312;9.790;2024-01-30T08:48:35;102076.28;;;5.34;76.81
39891;BME280;25564;53.312;9.790;2024-01-30T08:51:07;102073.50;;;5.40;76.96
39891;BME280;25564;53.312;9.790;2024-01-30T08:53:39;102074.03;;;5.48;76.86
39891;BME280;25564;53.312;9.790;2024-01-30T08:56:11;102081.56;;;5.54;76.44
39891;BME280;25564;53.312;9.790;2024-01-30T08:58:43;102070.88;;;5.63;76.55
39891;BME280;25564;53.312;9.790;2024-01-30T09:01:15;102080.91;;;5.71;76.60
39891;BME280;25564;53.312;9.790;2024-01-30T09:03:46;102096.00;;;5.80;76.55
39891;BME280;25564;53.312;9.790;2024-01-30T09:06:18;102106.13;;;5.84;76.67
39891;BME280;25564;53.312;9.790;2024-01-30T09:08:50;102107.44;;;5.94;76.34
39891;BME280;25564;53.312;9.790;2024-01-30T09:11:21;102101.28;;;5.98;76.04
39891;BME280;25564;53.312;9.790;2024-01-30T09:13:53;102101.09;;;6.03;76.02
39891;BME280;25564;53.312;9.790;2024-01-30T09:16:24;102099.97;;;6.10;76.22
39891;BME280;25564;53.312;9.790;2024-01-30T09:18:56;102097.22;;;6.14;76.32
39891;BME280;25564;53.312;9.790;2024-01-30T09:21:30;102099.53;;;6.20;76.39
39891;BME280;25564;53.312;9.790;2024-01-30T09:24:04;102098.25;;;6.30;75.92
39891;BME280;25564;53.312;9.790;2024-01-30T09:26:36;102104.00;;;6.37;76.00
39891;BME280;25564;53.312;9.790;2024-01-30T09:29:17;102110.59;;;6.44;75.66
39891;BME280;25564;53.312;9.790;2024-01-30T09:31:51;102106.91;;;6.50;75.93
39891;BME280;25564;53.312;9.790;2024-01-30T09:34:22;102110.00;;;6.58;75.54
39891;BME280;25564;53.312;9.790;2024-01-30T09:36:54;102109.75;;;6.64;75.30
39891;BME280;25564;53.312;9.790;2024-01-30T09:39:26;102102.53;;;6.72;75.38
39891;BME280;25564;53.312;9.790;2024-01-30T09:44:50;102100.97;;;6.88;75.41
39891;BME280;25564;53.312;9.790;2024-01-30T09:47:24;102103.28;;;6.94;75.21
39891;BME280;25564;53.312;9.790;2024-01-30T09:49:56;102096.19;;;6.99;75.40
39891;BME280;25564;53.312;9.790;2024-01-30T09:52:29;102091.53;;;7.07;74.89
39891;BME280;25564;53.312;9.790;2024-01-30T09:55:00;102090.34;;;7.14;74.98
39891;BME280;25564;53.312;9.790;2024-01-30T09:57:34;102079.63;;;7.23;74.72
39891;BME280;25564;53.312;9.790;2024-01-30T10:00:06;102076.75;;;7.29;74.80
39891;BME280;25564;53.312;9.790;2024-01-30T10:02:42;102080.81;;;7.35;74.62
39891;BME280;25564;53.312;9.790;2024-01-30T10:05:15;102076.06;;;7.44;74.61
39891;BME280;25564;53.312;9.790;2024-01-30T10:07:54;102074.88;;;7.51;74.65
39891;BME280;25564;53.312;9.790;2024-01-30T10:10:27;102079.78;;;7.57;74.48
39891;BME280;25564;53.312;9.790;2024-01-30T10:12:58;102080.28;;;7.65;74.46
39891;BME280;25564;53.312;9.790;2024-01-30T10:15:33;102082.56;;;7.71;74.21
39891;BME280;25564;53.312;9.790;2024-01-30T10:18:06;102070.25;;;7.76;73.87
39891;BME280;25564;53.312;9.790;2024-01-30T10:20:38;102078.34;;;7.87;73.91
39891;BME280;25564;53.312;9.790;2024-01-30T10:23:09;102077.06;;;7.96;73.92
39891;BME280;25564;53.312;9.790;2024-01-30T10:25:41;102067.91;;;8.08;74.20
39891;BME280;25564;53.312;9.790;2024-01-30T10:28:13;102065.69;;;8.17;73.52
39891;BME280;25564;53.312;9.790;2024-01-30T10:30:45;102064.41;;;8.26;73.85
39891;BME280;25564;53.312;9.790;2024-01-30T10:33:17;102065.78;;;8.33;73.19
39891;BME280;25564;53.312;9.790;2024-01-30T10:35:50;102062.06;;;8.38;73.04
39891;BME280;25564;53.312;9.790;2024-01-30T10:38:23;102052.38;;;8.42;73.23
39891;BME280;25564;53.312;9.790;2024-01-30T10:40:58;102058.09;;;8.48;72.91
39891;BME280;25564;53.312;9.790;2024-01-30T10:43:32;102048.28;;;8.55;73.28
39891;BME280;25564;53.312;9.790;2024-01-30T10:48:42;102047.63;;;8.67;73.40
39891;BME280;25564;53.312;9.790;2024-01-30T10:51:16;102040.16;;;8.78;73.27
39891;BME280;25564;53.312;9.790;2024-01-30T10:53:49;102045.63;;;8.89;72.80
39891;BME280;25564;53.312;9.790;2024-01-30T10:56:24;102038.19;;;8.99;72.57
39891;BME280;25564;53.312;9.790;2024-01-30T10:58:56;102037.22;;;9.01;73.53
39891;BME280;25564;53.312;9.790;2024-01-30T11:01:28;102033.38;;;9.08;73.06
39891;BME280;25564;53.312;9.790;2024-01-30T11:04:02;102029.47;;;9.17;72.80
39891;BME280;25564;53.312;9.790;2024-01-30T11:06:41;102030.06;;;9.22;72.83
39891;BME280;25564;53.312;9.790;2024-01-30T11:09:17;102040.19;;;9.26;72.46
39891;BME280;25564;53.312;9.790;2024-01-30T11:11:59;102039.09;;;9.30;72.09
39891;BME280;25564;53.312;9.790;2024-01-30T11:14:34;102041.59;;;9.32;72.48
39891;BME280;25564;53.312;9.790;2024-01-30T11:17:06;102050.22;;;9.32;72.50
39891;BME280;25564;53.312;9.790;2024-01-30T11:19:37;102053.56;;;9.34;72.33
39891;BME280;25564;53.312;9.790;2024-01-30T11:22:10;102048.97;;;9.39;72.06
39891;BME280;25564;53.312;9.790;2024-01-30T11:24:43;102054.91;;;9.41;71.49
39891;BME280;25564;53.312;9.790;2024-01-30T11:27:15;102055.81;;;9.40;71.49
39891;BME280;25564;53.312;9.790;2024-01-30T11:29:49;102048.97;;;9.39;71.30
39891;BME280;25564;53.312;9.790;2024-01-30T11:32:24;102052.56;;;9.37;71.68
39891;BME280;25564;53.312;9.790;2024-01-30T11:34:56;102042.09;;;9.38;71.84
39891;BME280;25564;53.312;9.790;2024-01-30T11:37:28;102041.78;;;9.44;71.69
39891;BME280;25564;53.312;9.790;2024-01-30T11:40:00;102039.19;;;9.44;71.64
39891;BME280;25564;53.312;9.790;2024-01-30T11:42:34;102032.34;;;9.43;71.21
39891;BME280;25564;53.312;9.790;2024-01-30T11:45:06;102038.84;;;9.51;71.20
39891;BME280;25564;53.312;9.790;2024-01-30T11:47:38;102037.75;;;9.55;71.08
39891;BME280;25564;53.312;9.790;2024-01-30T11:50:15;102036.59;;;9.60;71.06
39891;BME280;25564;53.312;9.790;2024-01-30T11:52:47;102031.06;;;9.66;70.96
39891;BME280;25564;53.312;9.790;2024-01-30T11:55:19;102038.34;;;9.75;70.70
39891;BME280;25564;53.312;9.790;2024-01-30T11:57:55;102036.06;;;9.85;70.68
39891;BME280;25564;53.312;9.790;2024-01-30T12:00:26;102044.41;;;9.90;70.61
39891;BME280;25564;53.312;9.790;2024-01-30T12:02:58;102040.78;;;9.92;70.72
39891;BME280;25564;53.312;9.790;2024-01-30T12:05:32;102039.38;;;9.87;70.34
39891;BME280;25564;53.312;9.790;2024-01-30T12:08:04;102038.56;;;9.86;70.45
39891;BME280;25564;53.312;9.790;2024-01-30T12:10:37;102032.53;;;9.86;70.62
39891;BME280;25564;53.312;9.790;2024-01-30T12:13:08;102034.84;;;9.90;70.21
39891;BME280;25564;53.312;9.790;2024-01-30T12:15:40;102025.16;;;9.94;70.18
39891;BME280;25564;53.312;9.790;2024-01-30T12:18:12;102013.78;;;9.96;70.24
39891;BME280;25564;53.312;9.790;2024-01-30T12:20:43;102032.66;;;9.98;69.94
39891;BME280;25564;53.312;9.790;2024-01-30T12:23:15;102028.25;;;10.00;70.00
39891;BME280;25564;53.312;9.790;2024-01-30T12:25:47;102032.66;;;9.98;69.79
39891;BME280;25564;53.312;9.790;2024-01-30T12:28:19;102019.44;;;10.03;70.27
39891;BME280;25564;53.312;9.790;2024-01-30T12:30:55;102026.31;;;10.04;70.21
39891;BME280;25564;53.312;9.790;2024-01-30T12:33:29;102030.50;;;10.06;69.80
39891;BME280;25564;53.312;9.790;2024-01-30T12:36:01;102037.97;;;10.11;70.04
39891;BME280;25564;53.312;9.790;2024-01-30T12:38:35;102031.25;;;10.08;69.85
39891;BME280;25564;53.312;9.790;2024-01-30T12:41:07;102027.81;;;10.08;70.00
39891;BME280;25564;53.312;9.790;2024-01-30T12:43:38;102028.28;;;10.14;69.92
39891;BME280;25564;53.312;9.790;2024-01-30T12:46:10;102023.94;;;10.15;69.84
39891;BME280;25564;53.312;9.790;2024-01-30T12:48:42;102029.13;;;10.15;70.20
39891;BME280;25564;53.312;9.790;2024-01-30T12:51:13;102036.97;;;10.13;69.96
39891;BME280;25564;53.312;9.790;2024-01-30T12:53:45;102036.22;;;10.11;69.94
39891;BME280;25564;53.312;9.790;2024-01-30T12:56:19;102041.50;;;10.10;69.97
39891;BME280;25564;53.312;9.790;2024-01-30T12:58:51;102035.69;;;10.06;69.73
39891;BME280;25564;53.312;9.790;2024-01-30T13:01:25;102034.94;;;10.04;70.20
39891;BME280;25564;53.312;9.790;2024-01-30T13:03:57;102033.25;;;10.03;69.81
39891;BME280;25564;53.312;9.790;2024-01-30T13:06:31;102030.75;;;10.02;69.36
39891;BME280;25564;53.312;9.790;2024-01-30T13:09:02;102036.84;;;10.01;69.64
39891;BME280;25564;53.312;9.790;2024-01-30T13:11:34;102038.69;;;9.99;70.00
39891;BME280;25564;53.312;9.790;2024-01-30T13:14:06;102034.44;;;9.98;69.91
39891;BME280;25564;53.312;9.790;2024-01-30T13:16:38;102035.34;;;9.97;70.03
39891;BME280;25564;53.312;9.790;2024-01-30T13:19:10;102049.91;;;9.99;69.94
39891;BME280;25564;53.312;9.790;2024-01-30T13:21:41;102047.22;;;10.01;69.60
39891;BME280;25564;53.312;9.790;2024-01-30T13:24:13;102040.38;;;10.00;69.55
39891;BME280;25564;53.312;9.790;2024-01-30T13:26:45;102036.09;;;9.99;69.77
39891;BME280;25564;53.312;9.790;2024-01-30T13:29:18;102036.09;;;9.99;70.12
39891;BME280;25564;53.312;9.790;2024-01-30T13:31:50;102031.84;;;9.98;69.67